Time;durP1;ratioP1;P1;durP2;ratioP2;P2;SDS_P1;SDS_P2;PMS_P1;PMS_P2;Temp;Humidity;BMP_temperature;BMP_pressure;BME280_temperature;BME280_humidity;BME280_pressure;Samples;Min_cycle;Max_cycle;Signal;HPM_P1;HPM_P2
2021/09/20 00:02:17;;;;;;;0.50;0.50;;;;;;;10.83;63.91;100387.58;113501;1193;139962;-85
2021/09/20 00:04:44;;;;;;;0.50;0.50;;;;;;;10.82;64.12;100388.51;113493;1193;109058;-88
2021/09/20 00:07:11;;;;;;;0.60;0.60;;;;;;;10.78;64.17;100392.86;113496;1193;95310;-85
2021/09/20 00:09:37;;;;;;;0.50;0.50;;;;;;;10.79;64.11;100397.66;113387;1193;140432;-82
2021/09/20 00:12:04;;;;;;;0.50;0.50;;;;;;;10.86;64.17;100395.86;113569;1193;94791;-85
2021/09/20 00:14:31;;;;;;;0.50;0.50;;;;;;;10.87;63.98;100396.18;113473;1193;138048;-85
2021/09/20 00:16:57;;;;;;;0.60;0.60;;;;;;;10.83;64.03;100394.52;113516;1193;109045;-83
2021/09/20 00:19:24;;;;;;;0.50;0.50;;;;;;;10.87;64.12;100396.91;113486;1193;94800;-87
2021/09/20 00:21:51;;;;;;;0.50;0.50;;;;;;;10.90;64.05;100393.25;113411;1193;139392;-86
2021/09/20 00:24:17;;;;;;;0.50;0.50;;;;;;;10.90;63.77;100395.23;113551;1193;94854;-83
2021/09/20 00:26:44;;;;;;;0.50;0.50;;;;;;;10.86;63.40;100396.57;113412;1194;137689;-84
2021/09/20 00:29:10;;;;;;;0.50;0.50;;;;;;;10.86;63.46;100393.38;113514;1193;109043;-83
2021/09/20 00:31:37;;;;;;;0.50;0.50;;;;;;;10.89;63.24;100391.88;113556;1193;94858;-87
2021/09/20 00:34:03;;;;;;;0.50;0.40;;;;;;;10.88;62.74;100395.61;113431;1193;139323;-85
2021/09/20 00:36:30;;;;;;;0.50;0.50;;;;;;;10.85;62.87;100397.11;113597;1193;94801;-83
2021/09/20 00:38:57;;;;;;;0.50;0.50;;;;;;;10.85;62.96;100400.13;113528;1193;138404;-87
2021/09/20 00:41:23;;;;;;;0.50;0.50;;;;;;;10.82;63.09;100400.40;113582;1193;108993;-85
2021/09/20 00:43:50;;;;;;;0.50;0.50;;;;;;;10.86;63.13;100403.86;113553;1193;94891;-87
2021/09/20 00:46:17;;;;;;;0.50;0.50;;;;;;;10.86;63.02;100405.96;113507;1193;139242;-85
2021/09/20 00:48:44;;;;;;;0.50;0.40;;;;;;;10.85;63.09;100402.10;113578;1193;94800;-84
2021/09/20 00:51:10;;;;;;;0.50;0.50;;;;;;;10.79;63.25;100400.49;113416;1193;140964;-86
2021/09/20 00:53:37;;;;;;;0.50;0.50;;;;;;;10.79;63.10;100402.96;113564;1193;94907;-83
2021/09/20 00:56:04;;;;;;;0.50;0.50;;;;;;;10.81;63.06;100402.73;113503;1193;140722;-88
2021/09/20 00:58:31;;;;;;;0.40;0.40;;;;;;;10.83;62.95;100402.85;113555;1193;93872;-87
2021/09/20 01:01:00;;;;;;;0.50;0.50;;;;;;;10.84;62.76;100404.77;113319;1195;94767;-88
2021/09/20 01:03:28;;;;;;;0.50;0.50;;;;;;;10.76;62.51;100403.95;113281;1193;139132;-90
2021/09/20 01:05:54;;;;;;;0.50;0.50;;;;;;;10.69;61.93;100406.64;113282;1194;94903;-89
2021/09/20 01:08:21;;;;;;;0.50;0.50;;;;;;;10.65;61.83;100405.11;113389;1193;138259;-89
2021/09/20 01:10:47;;;;;;;0.50;0.50;;;;;;;10.65;61.78;100402.45;113518;1193;94779;-89
2021/09/20 01:13:14;;;;;;;0.60;0.60;;;;;;;10.65;61.90;100401.76;113497;1193;93941;-88
2021/09/20 01:15:41;;;;;;;0.50;0.50;;;;;;;10.65;61.85;100399.44;113470;1193;140102;-86
2021/09/20 01:18:07;;;;;;;0.60;0.60;;;;;;;10.66;60.86;100398.17;113489;1193;109876;-85
2021/09/20 01:20:34;;;;;;;0.50;0.40;;;;;;;10.66;60.83;100400.48;113344;1193;139179;-87
2021/09/20 01:23:03;;;;;;;0.50;0.40;;;;;;;10.68;60.69;100402.02;113411;1193;94824;-85
2021/09/20 01:25:30;;;;;;;0.50;0.50;;;;;;;10.72;60.70;100402.11;113542;1193;95233;-85
2021/09/20 01:27:57;;;;;;;0.50;0.50;;;;;;;10.64;61.00;100400.35;113407;1193;139409;-88
2021/09/20 01:30:24;;;;;;;0.50;0.50;;;;;;;10.67;61.15;100396.89;113586;1193;94812;-85
2021/09/20 01:32:51;;;;;;;0.50;0.50;;;;;;;10.74;61.16;100392.64;113474;1193;138135;-86
2021/09/20 01:35:19;;;;;;;0.50;0.50;;;;;;;10.69;60.93;100388.30;113508;1193;94792;-85
2021/09/20 01:37:46;;;;;;;0.50;0.50;;;;;;;10.67;61.20;100385.02;113592;1193;94810;-86
2021/09/20 01:40:13;;;;;;;0.60;0.60;;;;;;;10.63;61.45;100383.34;113503;1193;138685;-85
2021/09/20 01:42:41;;;;;;;0.50;0.50;;;;;;;10.68;61.17;100384.27;113590;1193;94789;-87
2021/09/20 01:45:10;;;;;;;0.50;0.50;;;;;;;10.72;61.23;100385.58;113397;1193;139048;-86
2021/09/20 01:47:36;;;;;;;0.50;0.50;;;;;;;10.77;61.14;100384.38;113584;1193;110535;-84
2021/09/20 01:50:05;;;;;;;0.50;0.50;;;;;;;10.76;61.16;100387.60;113434;1193;139653;-88
2021/09/20 01:52:32;;;;;;;0.50;0.50;;;;;;;10.78;61.26;100386.50;113509;1193;94781;-86
2021/09/20 01:54:59;;;;;;;0.50;0.40;;;;;;;10.91;61.09;100384.90;113499;1193;94897;-85
2021/09/20 01:57:25;;;;;;;0.50;0.40;;;;;;;10.92;60.77;100388.77;113450;1193;137791;-88
2021/09/20 01:59:52;;;;;;;0.40;0.40;;;;;;;10.82;60.67;100394.73;113630;1194;94796;-84
2021/09/20 02:02:19;;;;;;;0.50;0.50;;;;;;;10.73;60.96;100393.20;113591;1193;139619;-85
2021/09/20 02:04:46;;;;;;;0.50;0.50;;;;;;;10.61;61.26;100389.26;113600;1193;94956;-86
2021/09/20 02:07:13;;;;;;;0.50;0.50;;;;;;;10.62;61.51;100394.36;113656;1193;94820;-88
2021/09/20 02:09:40;;;;;;;0.50;0.50;;;;;;;10.59;61.40;100394.44;113437;1193;137705;-84
2021/09/20 02:12:06;;;;;;;0.60;0.60;;;;;;;10.56;61.61;100396.13;113603;1193;95376;-85
2021/09/20 02:14:33;;;;;;;0.60;0.60;;;;;;;10.49;61.87;100395.23;113468;1193;139611;-86
2021/09/20 02:17:00;;;;;;;0.60;0.60;;;;;;;10.46;62.07;100396.57;113588;1193;94894;-84
2021/09/20 02:19:26;;;;;;;0.50;0.50;;;;;;;10.49;62.13;100390.27;113630;1193;94797;-87
2021/09/20 02:21:53;;;;;;;0.60;0.60;;;;;;;10.49;62.09;100392.75;113483;1193;139558;-85
2021/09/20 02:24:19;;;;;;;0.50;0.40;;;;;;;10.52;62.25;100393.38;113602;1193;94879;-91
2021/09/20 02:26:46;;;;;;;0.60;0.60;;;;;;;10.50;62.33;100394.50;113439;1193;138345;-83
2021/09/20 02:29:13;;;;;;;0.60;0.60;;;;;;;10.39;62.34;100393.02;113537;1193;94766;-86
2021/09/20 02:31:40;;;;;;;0.50;0.50;;;;;;;10.40;62.53;100391.59;113646;1193;94886;-84
2021/09/20 02:34:07;;;;;;;0.50;0.50;;;;;;;10.38;62.48;100390.20;113427;1193;137734;-82
2021/09/20 02:36:34;;;;;;;0.60;0.60;;;;;;;10.33;62.53;100387.64;113505;1193;94897;-87
2021/09/20 02:39:00;;;;;;;0.50;0.50;;;;;;;10.32;62.66;100389.42;113484;1193;139343;-90
2021/09/20 02:41:27;;;;;;;0.50;0.50;;;;;;;10.33;62.84;100390.83;113534;1193;94870;-87
2021/09/20 02:43:54;;;;;;;0.50;0.50;;;;;;;10.33;62.68;100393.33;113556;1193;94820;-86
2021/09/20 02:46:20;;;;;;;0.50;0.50;;;;;;;10.28;62.95;100388.31;113439;1193;138805;-85
2021/09/20 02:48:47;;;;;;;1.70;1.60;;;;;;;10.26;63.31;100388.17;113536;1193;95190;-85
2021/09/20 02:51:14;;;;;;;0.60;0.60;;;;;;;10.28;63.50;100385.63;113468;1193;139093;-86
2021/09/20 02:53:40;;;;;;;0.50;0.40;;;;;;;10.30;63.55;100388.77;113531;1193;94800;-85
2021/09/20 02:56:07;;;;;;;0.50;0.50;;;;;;;10.28;63.49;100389.35;113489;1193;139406;-85
2021/09/20 02:58:35;;;;;;;0.60;0.60;;;;;;;10.34;63.45;100387.64;113550;1193;109345;-86
2021/09/20 03:01:02;;;;;;;0.50;0.50;;;;;;;10.38;63.43;100386.83;113552;1193;94797;-87
2021/09/20 03:03:29;;;;;;;0.50;0.50;;;;;;;10.43;63.37;100381.41;113403;1193;139015;-84
2021/09/20 03:05:55;;;;;;;0.50;0.40;;;;;;;10.53;63.20;100380.77;113508;1193;95391;-87
2021/09/20 03:08:23;;;;;;;0.50;0.50;;;;;;;10.59;63.20;100381.48;113391;1193;138288;-85
2021/09/20 03:10:49;;;;;;;0.50;0.50;;;;;;;10.61;63.16;100384.64;113541;1193;94847;-85
2021/09/20 03:13:16;;;;;;;0.50;0.40;;;;;;;10.65;62.98;100381.16;113501;1193;96033;-84
2021/09/20 03:15:43;;;;;;;0.50;0.40;;;;;;;10.68;62.93;100384.09;113504;1193;139412;-85
2021/09/20 03:18:09;;;;;;;0.40;0.40;;;;;;;10.74;62.76;100386.23;113575;1193;109073;-85
2021/09/20 03:20:36;;;;;;;0.50;0.50;;;;;;;10.72;62.73;100390.00;113420;1193;137225;-85
2021/09/20 03:23:03;;;;;;;0.50;0.50;;;;;;;10.60;62.68;100390.16;113570;1193;94862;-85
2021/09/20 03:25:29;;;;;;;0.50;0.50;;;;;;;10.55;62.65;100388.70;113550;1193;94979;-87
2021/09/20 03:27:56;;;;;;;0.50;0.50;;;;;;;10.60;62.70;100387.48;113474;1193;137234;-86
2021/09/20 03:30:23;;;;;;;0.50;0.50;;;;;;;10.62;62.57;100391.53;113577;1195;108014;-87
2021/09/20 03:32:49;;;;;;;0.50;0.50;;;;;;;10.57;62.77;100389.36;113423;1194;139756;-84
2021/09/20 03:35:16;;;;;;;0.60;0.60;;;;;;;10.55;62.81;100388.70;113563;1193;95339;-85
2021/09/20 03:37:45;;;;;;;0.50;0.50;;;;;;;10.55;62.95;100388.17;113628;1193;95615;-85
2021/09/20 03:40:13;;;;;;;0.50;0.50;;;;;;;10.54;62.82;100389.62;113445;1193;137014;-87
2021/09/20 03:42:40;;;;;;;0.50;0.50;;;;;;;10.44;62.87;100387.91;113582;1193;110433;-83
2021/09/20 03:45:08;;;;;;;0.60;0.60;;;;;;;10.39;63.02;100387.15;113433;1193;138291;-86
2021/09/20 03:47:35;;;;;;;0.60;0.60;;;;;;;10.36;63.14;100385.10;113575;1193;94802;-87
2021/09/20 03:50:04;;;;;;;0.50;0.50;;;;;;;10.41;63.10;100384.63;113396;1194;140414;-85
2021/09/20 03:52:31;;;;;;;0.50;0.50;;;;;;;10.37;62.82;100383.65;113583;1194;109969;-85
2021/09/20 03:54:58;;;;;;;0.50;0.50;;;;;;;10.35;62.90;100387.95;113536;1194;95281;-85
2021/09/20 03:57:24;;;;;;;0.60;0.60;;;;;;;10.34;62.98;100390.10;113425;1193;140042;-84
2021/09/20 03:59:51;;;;;;;0.50;0.50;;;;;;;10.46;62.99;100392.66;113523;1193;94799;-84
2021/09/20 04:02:17;;;;;;;0.50;0.50;;;;;;;10.53;62.66;100397.27;113562;1193;138721;-85
2021/09/20 04:04:44;;;;;;;0.50;0.40;;;;;;;10.56;62.54;100400.57;113609;1193;108939;-83
2021/09/20 04:07:12;;;;;;;0.50;0.50;;;;;;;10.52;62.53;100400.31;113570;1193;95244;-86
2021/09/20 04:09:41;;;;;;;0.50;0.50;;;;;;;10.47;62.61;100401.14;113425;1193;139287;-87
2021/09/20 04:12:09;;;;;;;0.50;0.50;;;;;;;10.53;62.57;100403.48;113537;1193;110242;-87
2021/09/20 04:14:39;;;;;;;0.60;0.60;;;;;;;10.59;62.28;100404.95;113429;1193;139313;-85
2021/09/20 04:17:06;;;;;;;0.50;0.50;;;;;;;10.58;62.14;100401.92;113439;1193;95241;-85
2021/09/20 04:19:34;;;;;;;0.50;0.50;;;;;;;10.51;62.35;100403.16;113578;1193;94809;-91
2021/09/20 04:22:01;;;;;;;0.50;0.50;;;;;;;10.55;62.33;100408.41;113428;1193;138368;-87
2021/09/20 04:24:28;;;;;;;0.50;0.50;;;;;;;10.59;62.18;100407.07;114925;1193;109873;-90
2021/09/20 04:26:55;;;;;;;0.50;0.50;;;;;;;10.55;62.15;100405.02;114829;1194;142400;-90
2021/09/20 04:29:21;;;;;;;0.50;0.50;;;;;;;10.54;62.33;100409.49;113680;1193;95352;-89
2021/09/20 04:31:48;;;;;;;0.50;0.50;;;;;;;10.52;62.35;100412.02;113512;1194;94775;-87
2021/09/20 04:34:15;;;;;;;0.60;0.60;;;;;;;10.49;62.34;100412.46;113446;1193;138589;-85
2021/09/20 04:36:41;;;;;;;0.60;0.60;;;;;;;10.46;62.23;100410.05;113562;1193;94809;-84
2021/09/20 04:39:08;;;;;;;0.50;0.50;;;;;;;10.47;62.36;100406.83;113446;1193;138967;-85
2021/09/20 04:41:35;;;;;;;0.50;0.50;;;;;;;10.42;62.24;100409.64;113524;1193;94783;-85
2021/09/20 04:44:01;;;;;;;0.50;0.50;;;;;;;10.37;62.31;100413.98;113439;1193;139096;-84
2021/09/20 04:46:28;;;;;;;0.50;0.50;;;;;;;10.38;62.39;100413.80;113478;1193;95260;-86
2021/09/20 04:48:54;;;;;;;0.50;0.40;;;;;;;10.33;62.27;100420.29;113625;1193;94902;-84
2021/09/20 04:51:21;;;;;;;0.50;0.50;;;;;;;10.32;62.40;100415.86;113456;1193;139335;-85
2021/09/20 04:53:48;;;;;;;0.50;0.50;;;;;;;10.31;62.52;100421.21;113534;1193;95188;-85
2021/09/20 04:56:16;;;;;;;0.60;0.60;;;;;;;10.29;62.48;100423.92;113309;1195;141811;-85
2021/09/20 04:58:42;;;;;;;0.50;0.50;;;;;;;10.28;62.56;100424.48;113563;1193;94896;-85
2021/09/20 05:01:09;;;;;;;0.50;0.50;;;;;;;10.32;62.56;100426.33;113556;1193;95545;-85
2021/09/20 05:03:36;;;;;;;0.60;0.60;;;;;;;10.26;62.72;100426.48;113420;1193;137633;-86
2021/09/20 05:06:03;;;;;;;0.60;0.60;;;;;;;10.17;63.11;100427.77;113497;1193;95305;-87
2021/09/20 05:08:32;;;;;;;0.50;0.50;;;;;;;10.16;63.50;100429.05;113436;1193;138554;-87
2021/09/20 05:11:00;;;;;;;0.60;0.60;;;;;;;10.12;64.26;100433.20;113493;1194;109799;-84
2021/09/20 05:13:27;;;;;;;0.50;0.50;;;;;;;10.03;65.00;100433.07;113585;1193;94776;-89
2021/09/20 05:15:54;;;;;;;0.50;0.50;;;;;;;10.05;65.83;100439.39;113173;1193;138746;-86
2021/09/20 05:18:20;;;;;;;0.50;0.50;;;;;;;10.12;66.08;100445.45;113337;1193;94848;-85
2021/09/20 05:20:47;;;;;;;0.50;0.50;;;;;;;10.16;66.42;100443.95;113238;1193;140768;-87
2021/09/20 05:23:14;;;;;;;0.50;0.40;;;;;;;10.21;66.56;100442.05;113439;1193;94765;-83
2021/09/20 05:25:40;;;;;;;0.50;0.50;;;;;;;10.18;66.79;100444.41;113400;1193;94790;-86
2021/09/20 05:28:07;;;;;;;0.50;0.50;;;;;;;10.19;66.90;100444.57;113185;1193;139810;-84
2021/09/20 05:30:34;;;;;;;0.50;0.40;;;;;;;10.25;67.08;100448.16;113417;1193;94783;-86
2021/09/20 05:33:01;;;;;;;0.50;0.50;;;;;;;10.33;67.10;100445.65;113311;1193;137339;-85
2021/09/20 05:35:28;;;;;;;0.50;0.50;;;;;;;10.41;66.90;100447.98;113522;1193;94870;-86
2021/09/20 05:37:55;;;;;;;0.50;0.50;;;;;;;10.49;66.94;100452.41;113477;1193;94837;-85
2021/09/20 05:40:23;;;;;;;0.50;0.50;;;;;;;10.52;66.99;100450.55;113338;1193;138287;-85
2021/09/20 05:42:55;;;;;;;0.50;0.50;;;;;;;10.51;66.72;100450.56;113423;1193;94855;-84
2021/09/20 05:45:23;;;;;;;0.50;0.50;;;;;;;10.50;66.89;100447.94;113359;1193;137926;-84
2021/09/20 05:47:51;;;;;;;0.50;0.50;;;;;;;10.45;66.93;100444.17;113521;1193;94847;-86
2021/09/20 05:50:19;;;;;;;0.50;0.50;;;;;;;10.45;67.00;100440.97;113267;1193;138738;-85
2021/09/20 05:52:47;;;;;;;0.50;0.50;;;;;;;10.50;66.98;100440.66;113984;1193;110044;-86
2021/09/20 05:55:14;;;;;;;0.50;0.50;;;;;;;10.58;66.88;100443.31;113503;1193;94902;-84
2021/09/20 05:57:42;;;;;;;0.50;0.50;;;;;;;10.53;66.73;100438.63;113434;1193;138082;-84
2021/09/20 06:00:09;;;;;;;0.50;0.50;;;;;;;10.46;66.90;100438.81;113335;1193;94787;-87
2021/09/20 06:02:36;;;;;;;0.50;0.40;;;;;;;10.40;67.01;100441.27;113354;1193;139499;-85
2021/09/20 06:05:04;;;;;;;0.50;0.40;;;;;;;10.32;67.29;100441.41;113645;1193;94782;-87
2021/09/20 06:07:30;;;;;;;0.50;0.50;;;;;;;10.22;67.55;100443.98;113689;1194;94799;-86
2021/09/20 06:09:57;;;;;;;0.50;0.40;;;;;;;10.07;67.79;100445.39;113450;1193;140102;-82
2021/09/20 06:12:24;;;;;;;0.50;0.50;;;;;;;10.08;68.02;100438.82;113467;1193;94866;-85
2021/09/20 06:14:50;;;;;;;0.50;0.50;;;;;;;10.06;68.04;100435.84;113371;1193;139622;-84
2021/09/20 06:17:17;;;;;;;0.50;0.40;;;;;;;10.09;68.06;100430.81;113601;1193;94893;-83
2021/09/20 06:19:46;;;;;;;0.50;0.50;;;;;;;10.10;67.70;100425.98;113491;1193;94818;-83
2021/09/20 06:22:14;;;;;;;0.50;0.50;;;;;;;10.05;67.64;100427.34;113391;1193;138098;-84
2021/09/20 06:24:40;;;;;;;0.60;0.60;;;;;;;10.11;67.73;100429.70;113411;1193;94795;-84
2021/09/20 06:27:07;;;;;;;0.50;0.50;;;;;;;10.28;66.89;100430.52;113360;1193;140442;-89
2021/09/20 06:29:34;;;;;;;0.40;0.40;;;;;;;10.39;66.35;100433.31;113565;1193;94916;-84
2021/09/20 06:32:01;;;;;;;0.50;0.50;;;;;;;10.43;65.78;100435.87;113443;1193;139488;-83
2021/09/20 06:34:27;;;;;;;0.50;0.50;;;;;;;10.45;65.73;100441.31;113513;1193;94790;-83
2021/09/20 06:36:54;;;;;;;0.50;0.50;;;;;;;10.48;65.30;100444.60;113486;1193;109971;-83
2021/09/20 06:39:23;;;;;;;0.40;0.40;;;;;;;10.44;64.54;100442.05;113406;1193;138194;-85
2021/09/20 06:41:50;;;;;;;0.50;0.50;;;;;;;10.35;64.71;100445.27;113536;1193;95507;-83
2021/09/20 06:44:17;;;;;;;0.50;0.50;;;;;;;10.27;64.63;100440.83;113353;1193;139316;-82
2021/09/20 06:46:45;;;;;;;0.50;0.50;;;;;;;10.30;64.53;100443.23;113521;1193;94975;-85
2021/09/20 06:49:13;;;;;;;0.50;0.40;;;;;;;10.35;64.21;100442.08;113494;1193;94829;-86
2021/09/20 06:51:39;;;;;;;0.50;0.50;;;;;;;10.39;63.91;100447.52;113582;1193;137922;-84
2021/09/20 06:54:06;;;;;;;0.50;0.50;;;;;;;10.37;63.57;100447.02;113504;1193;95283;-85
2021/09/20 06:56:33;;;;;;;0.50;0.50;;;;;;;10.36;63.49;100452.02;113324;1193;138472;-87
2021/09/20 06:59:00;;;;;;;0.50;0.50;;;;;;;10.35;62.87;100455.56;113437;1195;94778;-83
2021/09/20 07:01:26;;;;;;;0.50;0.50;;;;;;;10.30;62.27;100457.98;113495;1195;95130;-85
2021/09/20 07:03:53;;;;;;;0.50;0.50;;;;;;;10.33;62.65;100454.90;113373;1193;139081;-82
2021/09/20 07:06:20;;;;;;;0.50;0.50;;;;;;;10.33;61.91;100458.64;113467;1193;94790;-82
2021/09/20 07:08:47;;;;;;;0.50;0.50;;;;;;;10.29;61.93;100457.11;113313;1193;137881;-85
2021/09/20 07:11:13;;;;;;;0.50;0.50;;;;;;;10.36;61.92;100459.46;113428;1193;95078;-85
2021/09/20 07:13:40;;;;;;;0.50;0.50;;;;;;;10.51;62.16;100466.20;113484;1193;94905;-83
2021/09/20 07:16:06;;;;;;;0.50;0.40;;;;;;;10.57;61.31;100465.88;113217;1193;139799;-84
2021/09/20 07:18:33;;;;;;;0.50;0.50;;;;;;;10.70;61.77;100469.63;113496;1193;94802;-83
2021/09/20 07:21:00;;;;;;;0.50;0.50;;;;;;;10.78;61.12;100468.70;113390;1193;138534;-83
2021/09/20 07:23:26;;;;;;;0.50;0.40;;;;;;;10.92;60.63;100471.19;113469;1193;94811;-85
2021/09/20 07:25:53;;;;;;;0.50;0.40;;;;;;;11.00;59.73;100473.46;113581;1193;94812;-85
2021/09/20 07:28:20;;;;;;;0.50;0.40;;;;;;;10.98;58.57;100475.99;113367;1193;138500;-82
2021/09/20 07:30:49;;;;;;;0.50;0.40;;;;;;;10.91;58.74;100474.94;113429;1193;109180;-87
2021/09/20 07:33:16;;;;;;;0.50;0.50;;;;;;;10.96;59.51;100477.13;113284;1193;137563;-84
2021/09/20 07:35:42;;;;;;;0.60;0.60;;;;;;;11.01;59.42;100475.94;113430;1193;94892;-84
2021/09/20 07:38:09;;;;;;;0.50;0.50;;;;;;;11.10;58.10;100478.70;113233;1193;139538;-86
2021/09/20 07:40:36;;;;;;;0.50;0.40;;;;;;;11.12;57.67;100477.59;113589;1193;94767;-85
2021/09/20 07:43:03;;;;;;;0.50;0.40;;;;;;;11.25;57.77;100476.89;113416;1193;108344;-87
2021/09/20 07:45:31;;;;;;;0.50;0.40;;;;;;;11.35;57.55;100479.27;113370;1195;137885;-84
2021/09/20 07:47:58;;;;;;;0.50;0.50;;;;;;;11.41;55.62;100482.30;113511;1193;94825;-82
2021/09/20 07:50:25;;;;;;;0.50;0.40;;;;;;;11.29;53.88;100483.35;113447;1193;139097;-83
2021/09/20 07:52:52;;;;;;;0.50;0.50;;;;;;;11.15;53.17;100482.83;113449;1193;94795;-87
2021/09/20 07:55:20;;;;;;;0.50;0.40;;;;;;;11.11;54.04;100484.36;113564;1193;94847;-84
2021/09/20 07:57:51;;;;;;;0.50;0.50;;;;;;;11.08;53.96;100481.98;113490;1193;139974;-88
2021/09/20 08:00:18;;;;;;;0.50;0.50;;;;;;;11.09;54.42;100482.30;113575;1193;94897;-87
2021/09/20 08:02:44;;;;;;;0.50;0.50;;;;;;;11.06;54.38;100483.08;113474;1193;138122;-86
2021/09/20 08:05:15;;;;;;;0.50;0.40;;;;;;;11.01;54.42;100489.43;113698;1194;109901;-82
2021/09/20 08:07:41;;;;;;;0.50;0.50;;;;;;;10.97;54.37;100495.05;113482;1193;94774;-90
2021/09/20 08:10:09;;;;;;;0.50;0.50;;;;;;;10.89;54.09;100490.45;113398;1193;139074;-86
2021/09/20 08:12:35;;;;;;;0.60;0.60;;;;;;;10.89;54.59;100495.95;113581;1193;94808;-85
2021/09/20 08:15:04;;;;;;;0.50;0.50;;;;;;;10.92;54.58;100494.30;113496;1193;136987;-86
2021/09/20 08:17:33;;;;;;;0.50;0.50;;;;;;;10.95;54.97;100494.91;113624;1193;94790;-84
2021/09/20 08:20:01;;;;;;;0.50;0.50;;;;;;;10.97;54.98;100496.27;113386;1193;137096;-82
2021/09/20 08:22:28;;;;;;;0.50;0.50;;;;;;;10.95;54.95;100496.32;113542;1193;109653;-87
2021/09/20 08:24:55;;;;;;;0.50;0.50;;;;;;;10.97;55.30;100494.31;113573;1193;94834;-84
2021/09/20 08:27:22;;;;;;;0.50;0.50;;;;;;;11.04;54.87;100493.80;113500;1193;138085;-84
2021/09/20 08:29:50;;;;;;;0.50;0.50;;;;;;;11.04;55.02;100494.85;113668;1193;94860;-86
2021/09/20 08:32:17;;;;;;;0.50;0.50;;;;;;;11.00;54.47;100495.85;113333;1193;137025;-85
2021/09/20 08:34:44;;;;;;;0.50;0.40;;;;;;;11.01;55.20;100499.73;113630;1193;94887;-88
2021/09/20 08:37:11;;;;;;;0.50;0.50;;;;;;;11.11;55.96;100501.23;113621;1193;95293;-85
2021/09/20 08:39:38;;;;;;;0.40;0.40;;;;;;;11.20;55.57;100500.11;113535;1193;138241;-83
2021/09/20 08:42:04;;;;;;;0.40;0.40;;;;;;;11.30;55.47;100501.08;113651;1193;95254;-86
2021/09/20 08:44:31;;;;;;;0.50;0.40;;;;;;;11.44;55.49;100503.18;113621;1193;139440;-84
2021/09/20 08:46:58;;;;;;;0.50;0.40;;;;;;;11.59;55.27;100502.59;113541;1193;109281;-89
2021/09/20 08:49:26;;;;;;;0.40;0.40;;;;;;;11.63;54.93;100505.14;113654;1193;95004;-85
2021/09/20 08:51:57;;;;;;;0.50;0.40;;;;;;;11.58;54.32;100508.83;113613;1193;138272;-87
2021/09/20 08:54:26;;;;;;;0.50;0.40;;;;;;;11.46;54.43;100505.45;113530;1193;109279;-85
2021/09/20 08:56:53;;;;;;;0.40;0.40;;;;;;;11.44;54.71;100509.41;113128;1193;138441;-89
2021/09/20 08:59:21;;;;;;;0.50;0.40;;;;;;;11.40;54.13;100507.74;113556;1193;95404;-86
2021/09/20 09:01:50;;;;;;;0.50;0.40;;;;;;;11.36;54.24;100503.92;113637;1193;95320;-86
2021/09/20 09:04:21;;;;;;;0.50;0.40;;;;;;;11.34;54.45;100507.38;113395;1193;137304;-86
2021/09/20 09:07:15;;;;;;;0.50;0.40;;;;;;;11.34;54.71;100505.08;113513;1193;110060;-88
2021/09/20 09:09:50;;;;;;;0.50;0.40;;;;;;;11.34;54.98;100503.80;113375;1193;138849;-86
2021/09/20 09:12:25;;;;;;;0.50;0.50;;;;;;;11.33;54.89;100503.84;113648;1193;94824;-87
2021/09/20 09:15:00;;;;;;;0.50;0.50;;;;;;;11.27;54.71;100507.39;113367;1193;137724;-85
2021/09/20 09:17:30;;;;;;;0.50;0.50;;;;;;;11.22;54.59;100506.45;113540;1193;109954;-88
2021/09/20 09:20:11;;;;;;;0.40;0.40;;;;;;;11.18;54.94;100505.13;113521;1193;95396;-88
2021/09/20 09:22:50;;;;;;;0.50;0.40;;;;;;;11.18;55.34;100509.02;113253;1193;137844;-89
2021/09/20 09:25:19;;;;;;;0.50;0.50;;;;;;;11.14;55.91;100510.23;113498;1193;108277;-85
2021/09/20 09:27:47;;;;;;;0.50;0.50;;;;;;;11.11;55.31;100511.92;113416;1193;140046;-87
2021/09/20 09:30:41;;;;;;;0.50;0.40;;;;;;;11.08;55.32;100511.62;113544;1195;94760;-86
2021/09/20 09:33:12;;;;;;;0.50;0.50;;;;;;;11.12;55.51;100515.27;113379;1193;137370;-86
2021/09/20 09:35:44;;;;;;;0.40;0.40;;;;;;;11.05;55.05;100513.48;113567;1193;109291;-86
2021/09/20 09:38:11;;;;;;;0.50;0.40;;;;;;;11.01;55.48;100513.59;114078;1193;110055;-85
2021/09/20 09:40:54;;;;;;;0.50;0.40;;;;;;;11.02;55.79;100511.08;113513;1193;137938;-88
2021/09/20 09:43:28;;;;;;;0.50;0.50;;;;;;;11.09;55.83;100513.55;113547;1193;95186;-87
2021/09/20 09:45:57;;;;;;;0.50;0.40;;;;;;;11.09;56.26;100521.91;113461;1193;139952;-87
2021/09/20 09:48:28;;;;;;;0.50;0.50;;;;;;;11.11;56.02;100517.77;115005;1193;108961;-88
2021/09/20 09:51:00;;;;;;;0.50;0.50;;;;;;;11.13;56.37;100522.33;114033;1193;138868;-88
2021/09/20 09:53:37;;;;;;;0.50;0.40;;;;;;;11.18;56.64;100525.05;113695;1193;95138;-87
2021/09/20 09:56:18;;;;;;;0.50;0.40;;;;;;;11.24;56.84;100526.31;113629;1193;109020;-87
2021/09/20 09:58:58;;;;;;;0.40;0.40;;;;;;;11.24;56.49;100530.59;113594;1193;140007;-86
2021/09/20 10:01:34;;;;;;;0.50;0.50;;;;;;;11.25;56.12;100522.90;113566;1193;94824;-87
2021/09/20 10:04:09;;;;;;;0.50;0.50;;;;;;;11.27;56.52;100523.21;113512;1193;137998;-85
2021/09/20 10:06:42;;;;;;;0.50;0.40;;;;;;;11.34;56.97;100522.13;113558;1193;109226;-85
2021/09/20 10:09:13;;;;;;;0.50;0.50;;;;;;;11.30;56.27;100524.02;113401;1193;140860;-85
2021/09/20 10:11:43;;;;;;;0.50;0.40;;;;;;;11.30;56.56;100522.95;113547;1193;94910;-86
2021/09/20 10:14:11;;;;;;;0.40;0.40;;;;;;;11.31;56.52;100527.35;114217;1193;93850;-87
2021/09/20 10:16:38;;;;;;;0.50;0.40;;;;;;;11.40;56.65;100531.02;113489;1193;138987;-86
2021/09/20 10:19:05;;;;;;;0.40;0.40;;;;;;;11.35;56.19;100531.34;113527;1193;95279;-89
2021/09/20 10:21:32;;;;;;;0.50;0.50;;;;;;;11.41;56.98;100536.52;113343;1193;140393;-86
2021/09/20 10:24:00;;;;;;;0.50;0.40;;;;;;;11.43;56.45;100533.97;113570;1193;95034;-87
2021/09/20 10:26:28;;;;;;;0.50;0.50;;;;;;;11.35;56.14;100536.33;113481;1193;138939;-85
2021/09/20 10:28:57;;;;;;;0.50;0.50;;;;;;;11.32;56.13;100536.75;114116;1193;109546;-86
2021/09/20 10:31:26;;;;;;;0.50;0.40;;;;;;;11.28;56.47;100537.77;113545;1193;94949;-87
2021/09/20 10:34:18;;;;;;;0.50;0.40;;;;;;;11.29;56.12;100540.20;113426;1193;139275;-86
2021/09/20 10:37:03;;;;;;;0.50;0.40;;;;;;;11.31;56.09;100543.02;113606;1193;108539;-86
2021/09/20 10:39:50;;;;;;;0.50;0.40;;;;;;;11.30;56.09;100542.14;113468;1193;139340;-87
2021/09/20 10:42:43;;;;;;;0.50;0.40;;;;;;;11.29;55.88;100546.27;113610;1193;94849;-87
2021/09/20 10:45:29;;;;;;;0.50;0.50;;;;;;;11.23;55.98;100542.16;113418;1193;139610;-85
2021/09/20 10:48:02;;;;;;;0.50;0.40;;;;;;;11.17;56.23;100542.48;113578;1193;109061;-93
2021/09/20 10:50:51;;;;;;;0.50;0.50;;;;;;;11.18;56.49;100542.30;113409;1193;138125;-85
2021/09/20 10:53:29;;;;;;;0.50;0.50;;;;;;;11.19;56.74;100548.30;113556;1193;94854;-88
2021/09/20 10:56:02;;;;;;;0.40;0.40;;;;;;;11.29;56.54;100547.33;113574;1193;95323;-84
2021/09/20 10:58:39;;;;;;;0.40;0.40;;;;;;;11.36;56.21;100547.83;113441;1193;137716;-90
2021/09/20 11:01:11;;;;;;;0.40;0.40;;;;;;;11.39;56.11;100543.33;113553;1193;110556;-85
2021/09/20 11:03:44;;;;;;;0.50;0.40;;;;;;;11.51;56.06;100549.23;113409;1193;138625;-84
2021/09/20 11:06:22;;;;;;;0.40;0.40;;;;;;;11.58;56.27;100547.63;113524;1193;94874;-88
2021/09/20 11:08:58;;;;;;;0.50;0.50;;;;;;;11.59;55.16;100547.04;113445;1195;139400;-86
2021/09/20 11:11:38;;;;;;;0.50;0.40;;;;;;;11.55;55.64;100550.17;113560;1193;108919;-86
2021/09/20 11:14:41;;;;;;;0.40;0.40;;;;;;;11.50;55.38;100547.99;113560;1193;94823;-85
2021/09/20 11:17:25;;;;;;;0.50;0.50;;;;;;;11.45;56.13;100552.23;113544;1193;94819;-89
2021/09/20 11:19:54;;;;;;;0.50;0.40;;;;;;;11.49;55.86;100551.05;113528;1193;109183;-87